createdAt,value
2022-12-15T00:01:01.539Z,980.09
2022-12-15T00:02:03.339Z,980.1
2022-12-15T00:03:05.123Z,980.08
2022-12-15T00:04:06.795Z,980.11
2022-12-15T00:05:08.391Z,980.1
2022-12-15T00:06:10.133Z,980.1
2022-12-15T00:07:11.905Z,980.13
2022-12-15T00:08:13.651Z,980.13
2022-12-15T00:09:16.827Z,980.13
2022-12-15T00:10:17.082Z,980.17
2022-12-15T00:11:18.804Z,980.12
2022-12-15T00:12:20.529Z,980.13
2022-12-15T00:13:22.284Z,980.15
2022-12-15T00:14:24.018Z,980.18
2022-12-15T00:15:25.785Z,980.15
2022-12-15T00:16:27.730Z,980.12
2022-12-15T00:17:29.207Z,980.12
2022-12-15T00:18:30.995Z,980.1
2022-12-15T00:19:32.714Z,980.17
2022-12-15T00:20:34.468Z,980.13
2022-12-15T00:21:36.192Z,980.04
2022-12-15T00:22:37.876Z,980.07
2022-12-15T00:23:39.624Z,980.07
2022-12-15T00:24:41.393Z,980.09
2022-12-15T00:25:43.099Z,980.15
2022-12-15T00:26:44.835Z,980.2
2022-12-15T00:27:46.569Z,980.24
2022-12-15T00:28:48.296Z,980.28
2022-12-15T00:29:50.031Z,980.21
2022-12-15T00:30:53.226Z,980.25
2022-12-15T00:31:53.634Z,980.3
2022-12-15T00:32:55.267Z,980.33
2022-12-15T00:33:56.955Z,980.29
2022-12-15T00:34:58.694Z,980.22
2022-12-15T00:36:00.440Z,980.31
2022-12-15T00:37:02.151Z,980.23
2022-12-15T00:38:03.889Z,980.31
2022-12-15T00:39:05.637Z,980.25
2022-12-15T00:40:07.358Z,980.26
2022-12-15T00:41:09.132Z,980.13
2022-12-15T00:42:10.854Z,980.24
2022-12-15T00:43:12.600Z,980.25
2022-12-15T00:44:18.920Z,980.27
2022-12-15T00:45:16.075Z,980.35
2022-12-15T00:46:17.825Z,980.32
2022-12-15T00:47:19.504Z,980.4
2022-12-15T00:48:21.263Z,980.4
2022-12-15T00:49:22.967Z,980.44
2022-12-15T00:50:24.722Z,980.4
2022-12-15T00:51:26.434Z,980.39
2022-12-15T00:52:28.187Z,980.39
2022-12-15T00:53:30.275Z,980.32
2022-12-15T00:54:31.684Z,980.29
2022-12-15T00:55:33.370Z,980.33
2022-12-15T00:56:35.096Z,980.36
2022-12-15T00:57:36.906Z,980.32
2022-12-15T00:58:38.569Z,980.26
2022-12-15T00:59:40.342Z,980.4
2022-12-15T01:00:42.069Z,980.47
2022-12-15T01:01:43.856Z,980.56
2022-12-15T01:02:45.747Z,980.63
2022-12-15T01:03:47.300Z,980.61
2022-12-15T01:04:49.006Z,980.64
2022-12-15T01:05:50.701Z,980.66
2022-12-15T01:06:52.428Z,980.63
2022-12-15T01:07:54.170Z,980.67
2022-12-15T01:08:55.892Z,980.71
2022-12-15T01:09:57.665Z,980.71
2022-12-15T01:10:59.403Z,980.74
2022-12-15T01:12:01.096Z,980.69
2022-12-15T01:13:02.839Z,980.79
2022-12-15T01:14:04.612Z,980.73
2022-12-15T01:15:06.306Z,980.74
2022-12-15T01:16:08.160Z,980.74
2022-12-15T01:17:09.798Z,980.69
2022-12-15T01:18:11.512Z,980.77
2022-12-15T01:19:13.285Z,980.71
2022-12-15T01:20:15.004Z,980.82
2022-12-15T01:21:16.741Z,980.75
2022-12-15T01:22:18.435Z,980.8
2022-12-15T01:23:20.172Z,980.78
2022-12-15T01:24:21.951Z,980.83
2022-12-15T01:25:23.691Z,980.76
2022-12-15T01:26:25.384Z,980.86
2022-12-15T01:27:27.119Z,980.89
2022-12-15T01:28:28.872Z,980.83
2022-12-15T01:29:30.565Z,980.87
2022-12-15T01:30:32.321Z,980.91
2022-12-15T01:31:34.179Z,980.98
2022-12-15T01:32:35.820Z,980.99
2022-12-15T01:33:37.537Z,980.94
2022-12-15T01:34:39.251Z,980.99
2022-12-15T01:35:40.970Z,981.03
2022-12-15T01:36:42.721Z,980.91
2022-12-15T01:37:44.454Z,981.02
2022-12-15T01:38:52.312Z,981.07
2022-12-15T01:39:47.924Z,981.13
2022-12-15T01:40:49.683Z,981.13
2022-12-15T01:41:51.442Z,981.07
2022-12-15T01:42:53.126Z,981.18
2022-12-15T01:43:54.885Z,981.11
2022-12-15T01:44:56.585Z,981.14
2022-12-15T01:45:58.325Z,981.18
2022-12-15T01:47:00.321Z,981.24
2022-12-15T01:48:01.832Z,981.17
2022-12-15T01:49:03.528Z,981.16
2022-12-15T01:50:05.287Z,981.18
2022-12-15T01:51:06.979Z,981.12
2022-12-15T01:52:08.712Z,981.14
2022-12-15T01:53:10.501Z,981.22
2022-12-15T01:54:12.222Z,981.26
2022-12-15T01:55:13.938Z,981.16
2022-12-15T01:56:15.646Z,981.13
2022-12-15T01:57:17.374Z,981.18
2022-12-15T01:58:19.152Z,981.2
2022-12-15T01:59:20.841Z,981.18
2022-12-15T02:00:22.675Z,981.24
2022-12-15T02:01:24.445Z,981.24
2022-12-15T02:02:26.285Z,981.27
2022-12-15T02:03:27.945Z,981.26
2022-12-15T02:04:29.520Z,981.31
2022-12-15T02:05:31.253Z,981.25
2022-12-15T02:06:32.999Z,981.29
2022-12-15T02:07:34.746Z,981.27
2022-12-15T02:08:36.488Z,981.29
2022-12-15T02:09:38.228Z,981.27
2022-12-15T02:10:39.910Z,981.36
2022-12-15T02:11:41.655Z,981.3
2022-12-15T02:12:43.386Z,981.28
2022-12-15T02:13:45.125Z,981.31
2022-12-15T02:14:46.866Z,981.32
2022-12-15T02:15:48.613Z,981.34
2022-12-15T02:16:50.389Z,981.24
2022-12-15T02:17:52.102Z,981.3
2022-12-15T02:18:53.798Z,981.23
2022-12-15T02:19:55.552Z,981.26
2022-12-15T02:20:57.298Z,981.28
2022-12-15T02:21:58.983Z,981.27
2022-12-15T02:23:00.720Z,981.25
2022-12-15T02:24:02.488Z,981.18
2022-12-15T02:25:04.255Z,981.26
2022-12-15T02:26:05.925Z,981.24
2022-12-15T02:27:07.656Z,981.23
2022-12-15T02:28:09.416Z,981.18
2022-12-15T02:29:11.122Z,981.21
2022-12-15T02:30:12.852Z,981.25
2022-12-15T02:31:14.703Z,981.07
2022-12-15T02:32:16.327Z,981.25
2022-12-15T02:33:18.053Z,981.28
2022-12-15T02:34:19.824Z,981.27
2022-12-15T02:35:21.517Z,981.22
2022-12-15T02:36:23.254Z,981.2
2022-12-15T02:37:24.995Z,981.21
2022-12-15T02:38:26.720Z,981.1
2022-12-15T02:39:28.497Z,981.17
2022-12-15T02:40:30.230Z,981.2
2022-12-15T02:41:31.961Z,981.24
2022-12-15T02:42:33.663Z,981.24
2022-12-15T02:43:39.156Z,981.29
2022-12-15T02:44:37.143Z,981.27
2022-12-15T02:45:38.891Z,981.32
2022-12-15T02:46:40.602Z,981.33
2022-12-15T02:47:42.364Z,981.4
2022-12-15T02:48:44.093Z,981.38
2022-12-15T02:49:45.848Z,981.38
2022-12-15T02:50:47.536Z,981.42
2022-12-15T02:51:49.272Z,981.36
2022-12-15T02:52:50.989Z,981.42
2022-12-15T02:53:52.767Z,981.37
2022-12-15T02:54:54.517Z,981.39
2022-12-15T02:55:56.203Z,981.44
2022-12-15T02:56:57.971Z,981.38
2022-12-15T02:57:59.671Z,981.42
2022-12-15T02:59:01.407Z,981.36
2022-12-15T03:00:03.209Z,981.4
2022-12-15T03:01:04.933Z,981.37
2022-12-15T03:02:06.886Z,981.48
2022-12-15T03:03:08.442Z,981.43
2022-12-15T03:04:10.086Z,981.47
2022-12-15T03:05:11.806Z,981.51
2022-12-15T03:06:13.538Z,981.49
2022-12-15T03:07:15.273Z,981.56
2022-12-15T03:08:17.038Z,981.42
2022-12-15T03:09:18.744Z,981.56
2022-12-15T03:10:20.482Z,981.49
2022-12-15T03:11:22.191Z,981.55
2022-12-15T03:12:23.997Z,981.57
2022-12-15T03:13:25.714Z,981.57
2022-12-15T03:14:27.400Z,981.65
2022-12-15T03:15:35.124Z,981.65
2022-12-15T03:16:30.882Z,981.56
2022-12-15T03:17:32.646Z,981.63
2022-12-15T03:18:34.347Z,981.71
2022-12-15T03:19:36.075Z,981.71
2022-12-15T03:20:37.854Z,981.73
2022-12-15T03:21:39.559Z,981.75
2022-12-15T03:22:41.281Z,981.71
2022-12-15T03:23:43.050Z,981.84
2022-12-15T03:24:44.731Z,981.82
2022-12-15T03:25:46.523Z,981.82
2022-12-15T03:26:48.222Z,981.79
2022-12-15T03:27:49.932Z,981.87
2022-12-15T03:28:51.714Z,981.85
2022-12-15T03:29:53.451Z,981.84
2022-12-15T03:30:55.142Z,981.84
2022-12-15T03:31:56.978Z,981.81
2022-12-15T03:32:58.669Z,981.8
2022-12-15T03:34:00.361Z,981.6
2022-12-15T03:35:02.159Z,981.78
2022-12-15T03:36:03.827Z,981.76
2022-12-15T03:37:05.545Z,981.78
2022-12-15T03:38:07.301Z,981.8
2022-12-15T03:39:09.021Z,981.8
2022-12-15T03:40:10.765Z,981.82
2022-12-15T03:41:12.493Z,981.71
2022-12-15T03:42:14.255Z,981.85
2022-12-15T03:43:15.965Z,981.82
2022-12-15T03:44:17.697Z,981.84
2022-12-15T03:45:19.427Z,981.85
2022-12-15T03:46:21.205Z,981.77
2022-12-15T03:47:22.899Z,981.82
2022-12-15T03:48:24.648Z,981.8
2022-12-15T03:49:26.359Z,981.86
2022-12-15T03:50:28.090Z,981.91
2022-12-15T03:51:29.865Z,981.92
2022-12-15T03:52:31.618Z,981.84
2022-12-15T03:53:33.621Z,981.9
2022-12-15T03:54:35.077Z,981.92
2022-12-15T03:55:36.794Z,982.01
2022-12-15T03:56:38.539Z,981.96
2022-12-15T03:57:40.225Z,981.99
2022-12-15T03:58:41.979Z,982.02
2022-12-15T03:59:43.696Z,982.06
2022-12-15T04:00:45.444Z,981.94
2022-12-15T04:01:47.315Z,981.96
2022-12-15T04:02:49.996Z,981.96
2022-12-15T04:03:54.230Z,981.93
2022-12-15T04:04:52.435Z,981.97
2022-12-15T04:05:54.094Z,981.83
2022-12-15T04:06:55.853Z,982
2022-12-15T04:07:57.573Z,982.07
2022-12-15T04:08:59.298Z,981.85
2022-12-15T04:10:01.079Z,982.03
2022-12-15T04:11:02.818Z,982.04
2022-12-15T04:12:04.514Z,982.11
2022-12-15T04:13:06.262Z,982.03
2022-12-15T04:14:08.020Z,982.14
2022-12-15T04:15:09.754Z,982.02
2022-12-15T04:16:14.819Z,982.04
2022-12-15T04:17:13.253Z,982.19
2022-12-15T04:18:14.919Z,982.06
2022-12-15T04:19:16.649Z,982.13
2022-12-15T04:20:18.385Z,982.17
2022-12-15T04:21:20.121Z,982.18
2022-12-15T04:22:21.869Z,982.17
2022-12-15T04:23:23.579Z,982.1
2022-12-15T04:24:25.326Z,982.14
2022-12-15T04:25:27.057Z,982.13
2022-12-15T04:26:28.868Z,982.1
2022-12-15T04:27:30.540Z,982.05
2022-12-15T04:28:32.266Z,982.11
2022-12-15T04:29:33.985Z,982.07
2022-12-15T04:30:35.755Z,982.08
2022-12-15T04:31:37.455Z,981.97
2022-12-15T04:32:39.187Z,982.13
2022-12-15T04:33:40.930Z,982.13
2022-12-15T04:34:42.695Z,982.1
2022-12-15T04:35:44.392Z,982.07
2022-12-15T04:36:46.137Z,982.1
2022-12-15T04:37:47.868Z,982.11
2022-12-15T04:38:50.522Z,982.14
2022-12-15T04:39:51.362Z,982.1
2022-12-15T04:40:53.067Z,982.07
2022-12-15T04:41:54.806Z,982.11
2022-12-15T04:42:56.601Z,982.06
2022-12-15T04:43:58.263Z,981.88
2022-12-15T04:45:00.003Z,982.03
2022-12-15T04:46:01.781Z,981.96
2022-12-15T04:47:03.519Z,981.98
2022-12-15T04:48:05.192Z,982.04
2022-12-15T04:49:06.940Z,981.99
2022-12-15T04:50:08.655Z,981.98
2022-12-15T04:51:10.392Z,982.11
2022-12-15T04:52:12.163Z,982.07
2022-12-15T04:53:13.900Z,982.02
2022-12-15T04:54:15.594Z,982.11
2022-12-15T04:55:17.361Z,982.19
2022-12-15T04:56:19.093Z,982.19
2022-12-15T04:57:20.815Z,982.22
2022-12-15T04:58:22.559Z,982.1
2022-12-15T04:59:24.288Z,982.34
2022-12-15T05:00:26.016Z,982.36
2022-12-15T05:01:27.882Z,982.39
2022-12-15T05:02:29.717Z,982.4
2022-12-15T05:03:31.643Z,982.34
2022-12-15T05:04:33.129Z,982.36
2022-12-15T05:05:34.727Z,982.36
2022-12-15T05:06:36.421Z,982.36
2022-12-15T05:07:38.150Z,982.34
2022-12-15T05:08:39.899Z,982.27
2022-12-15T05:09:41.665Z,982.29
2022-12-15T05:10:43.353Z,982.36
2022-12-15T05:11:45.131Z,982.23
2022-12-15T05:12:46.837Z,982.35
2022-12-15T05:13:48.607Z,982.34
2022-12-15T05:14:50.329Z,982.33
2022-12-15T05:15:52.290Z,982.2
2022-12-15T05:16:53.788Z,982.4
2022-12-15T05:17:55.541Z,982.38
2022-12-15T05:18:57.253Z,982.31
2022-12-15T05:19:58.967Z,982.35
2022-12-15T05:21:00.693Z,982.32
2022-12-15T05:22:02.423Z,982.35
2022-12-15T05:23:04.163Z,982.41
2022-12-15T05:24:05.934Z,982.38
2022-12-15T05:25:07.646Z,982.27
2022-12-15T05:26:09.358Z,982.37
2022-12-15T05:27:11.148Z,982.37
2022-12-15T05:28:12.837Z,982.37
2022-12-15T05:29:14.566Z,982.24
2022-12-15T05:30:16.349Z,982.41
2022-12-15T05:31:23.310Z,982.33
2022-12-15T05:32:30.107Z,982.33
2022-12-15T05:33:32.226Z,982.39
2022-12-15T05:34:33.907Z,982.37
2022-12-15T05:36:13.752Z,982.37
2022-12-15T05:37:18.243Z,982.47
2022-12-15T05:38:19.979Z,982.42
2022-12-15T05:39:21.737Z,982.46
2022-12-15T05:40:23.467Z,982.32
2022-12-15T05:41:25.204Z,982.37
2022-12-15T05:42:26.903Z,982.33
2022-12-15T05:43:29.085Z,982.36
2022-12-15T05:44:30.408Z,982.4
2022-12-15T05:45:32.123Z,982.4
2022-12-15T05:46:34.015Z,982.39
2022-12-15T05:47:35.585Z,982.43
2022-12-15T05:48:37.323Z,982.37
2022-12-15T05:49:39.063Z,982.46
2022-12-15T05:50:40.780Z,982.44
2022-12-15T05:51:42.604Z,982.51
2022-12-15T05:52:49.130Z,982.3
2022-12-15T05:53:45.982Z,982.35
2022-12-15T05:54:47.720Z,982.5
2022-12-15T05:55:49.487Z,982.49
2022-12-15T05:56:51.187Z,982.52
2022-12-15T05:57:52.945Z,982.41
2022-12-15T05:58:54.653Z,982.55
2022-12-15T05:59:56.387Z,982.47
2022-12-15T06:00:58.116Z,982.59
2022-12-15T06:01:59.970Z,982.6
2022-12-15T06:03:01.703Z,982.54
2022-12-15T06:04:03.375Z,982.59
2022-12-15T06:05:05.168Z,982.48
2022-12-15T06:06:06.857Z,982.53
2022-12-15T06:07:08.559Z,982.59
2022-12-15T06:08:10.265Z,982.62
2022-12-15T06:09:12.011Z,982.61
2022-12-15T06:10:13.715Z,982.66
2022-12-15T06:11:15.462Z,982.66
2022-12-15T06:12:17.186Z,982.62
2022-12-15T06:13:18.958Z,982.66
2022-12-15T06:14:20.762Z,982.66
2022-12-15T06:15:22.380Z,982.73
2022-12-15T06:16:24.304Z,982.78
2022-12-15T06:17:25.877Z,982.83
2022-12-15T06:18:27.593Z,982.83
2022-12-15T06:19:29.348Z,982.84
2022-12-15T06:20:31.089Z,982.9
2022-12-15T06:21:32.797Z,982.87
2022-12-15T06:22:34.540Z,982.96
2022-12-15T06:23:36.269Z,982.99
2022-12-15T06:24:37.983Z,983.01
2022-12-15T06:25:39.779Z,982.92
2022-12-15T06:26:41.456Z,983.01
2022-12-15T06:27:43.198Z,982.97
2022-12-15T06:28:44.973Z,982.94
2022-12-15T06:29:46.676Z,982.99
2022-12-15T06:30:48.408Z,982.94
2022-12-15T06:31:50.222Z,982.95
2022-12-15T06:32:51.861Z,982.9
2022-12-15T06:34:00.939Z,982.84
2022-12-15T06:34:55.348Z,982.81
2022-12-15T06:35:57.103Z,982.84
2022-12-15T06:36:58.801Z,982.83
2022-12-15T06:38:00.538Z,982.9
2022-12-15T06:39:02.292Z,982.96
2022-12-15T06:40:04.085Z,982.99
2022-12-15T06:41:05.742Z,983.06
2022-12-15T06:42:07.487Z,983.01
2022-12-15T06:43:09.200Z,983.09
2022-12-15T06:44:10.939Z,983.12
2022-12-15T06:45:12.653Z,983.15
2022-12-15T06:46:14.443Z,983.14
2022-12-15T06:47:16.139Z,983.1
2022-12-15T06:48:17.866Z,983.13
2022-12-15T06:49:19.589Z,983.07
2022-12-15T06:50:21.451Z,983.08
2022-12-15T06:51:23.163Z,983.14
2022-12-15T06:52:24.838Z,983.13
2022-12-15T06:53:26.537Z,983.19
2022-12-15T06:54:28.312Z,983.12
2022-12-15T06:55:29.991Z,983.16
2022-12-15T06:56:34.169Z,983.15
2022-12-15T06:57:33.521Z,983.16
2022-12-15T06:58:35.226Z,983.11
2022-12-15T06:59:36.960Z,983.03
2022-12-15T07:00:38.669Z,982.97
2022-12-15T07:01:40.564Z,983.15
2022-12-15T07:02:44.382Z,983.1
2022-12-15T07:03:49.179Z,983.16
2022-12-15T07:04:50.792Z,983.16
2022-12-15T07:05:52.484Z,983.1
2022-12-15T07:06:54.250Z,983.09
2022-12-15T07:07:55.945Z,983.08
2022-12-15T07:08:57.726Z,983.1
2022-12-15T07:09:59.449Z,983.18
2022-12-15T07:11:01.155Z,983.19
2022-12-15T07:12:02.871Z,983.15
2022-12-15T07:13:04.612Z,983.16
2022-12-15T07:14:06.351Z,983.15
2022-12-15T07:15:08.097Z,983.2
2022-12-15T07:16:09.913Z,983.15
2022-12-15T07:17:11.544Z,983.11
2022-12-15T07:18:13.327Z,983.13
2022-12-15T07:19:15.062Z,983.15
2022-12-15T07:20:16.757Z,983.11
2022-12-15T07:21:18.476Z,983.15
2022-12-15T07:22:20.278Z,983.18
2022-12-15T07:23:34.386Z,983.19
2022-12-15T07:24:23.691Z,983.18
2022-12-15T07:25:25.413Z,983.12
2022-12-15T07:26:27.150Z,983.17
2022-12-15T07:27:28.940Z,983.1
2022-12-15T07:28:31.050Z,982.95
2022-12-15T07:29:32.351Z,983.06
2022-12-15T07:30:38.660Z,983.13
2022-12-15T07:31:35.908Z,983.16
2022-12-15T07:32:37.595Z,983.06
2022-12-15T07:33:39.297Z,983.2
2022-12-15T07:34:41.152Z,983.2
2022-12-15T07:35:42.774Z,983.09
2022-12-15T07:36:49.961Z,983.11
2022-12-15T07:37:46.233Z,983.15
2022-12-15T07:38:50.820Z,983.13
2022-12-15T07:39:49.723Z,983.24
2022-12-15T07:40:51.424Z,983.31
2022-12-15T07:41:53.155Z,983.39
2022-12-15T07:42:54.895Z,983.37
2022-12-15T07:43:56.638Z,983.33
2022-12-15T07:44:58.435Z,983.33
2022-12-15T07:46:00.359Z,983.32
2022-12-15T07:47:01.847Z,983.24
2022-12-15T07:48:03.580Z,983.35
2022-12-15T07:49:05.307Z,983.35
2022-12-15T07:50:07.031Z,983.33
2022-12-15T07:51:15.255Z,983.39
2022-12-15T07:52:10.533Z,983.39
2022-12-15T07:53:12.219Z,983.41
2022-12-15T07:54:13.960Z,983.42
2022-12-15T07:55:15.705Z,983.39
2022-12-15T07:56:17.485Z,983.16
2022-12-15T07:58:58.541Z,983.47
2022-12-15T08:00:00.281Z,983.57
2022-12-15T08:01:02.144Z,983.37
2022-12-15T08:02:04.033Z,983.53
2022-12-15T08:03:05.601Z,983.51
2022-12-15T08:04:07.299Z,983.4
2022-12-15T08:05:08.942Z,983.5
2022-12-15T08:06:10.701Z,983.51
2022-12-15T08:07:12.451Z,983.52
2022-12-15T08:08:15.538Z,983.53
2022-12-15T08:09:15.881Z,983.59
2022-12-15T08:10:17.589Z,983.45
2022-12-15T08:11:19.149Z,983.51
2022-12-15T08:12:20.819Z,983.56
2022-12-15T08:14:00.206Z,983.57
2022-12-15T08:14:24.953Z,983.57
2022-12-15T08:15:26.259Z,983.62
2022-12-15T08:16:27.878Z,983.6
2022-12-15T08:17:30.831Z,983.65
2022-12-15T08:18:31.287Z,983.5
2022-12-15T08:19:33.033Z,983.58
2022-12-15T08:20:34.713Z,983.55
2022-12-15T08:21:36.739Z,983.46
2022-12-15T08:22:38.164Z,983.52
2022-12-15T08:23:39.901Z,983.46
2022-12-15T08:24:41.671Z,983.45
2022-12-15T08:25:43.430Z,983.42
2022-12-15T08:26:45.167Z,983.48
2022-12-15T08:27:46.849Z,983.4
2022-12-15T08:28:48.609Z,983.43
2022-12-15T08:29:51.909Z,983.45
2022-12-15T08:30:52.080Z,983.47
2022-12-15T08:31:53.848Z,983.48
2022-12-15T08:32:55.513Z,983.6
2022-12-15T08:33:57.274Z,983.55
2022-12-15T08:34:58.953Z,983.61
2022-12-15T08:36:00.749Z,983.65
2022-12-15T08:37:02.528Z,983.61
2022-12-15T08:38:05.775Z,983.64
2022-12-15T08:39:05.916Z,983.73
2022-12-15T08:40:07.681Z,983.7
2022-12-15T08:41:09.424Z,983.67
2022-12-15T08:42:11.147Z,983.63
2022-12-15T08:43:12.884Z,983.64
2022-12-15T08:44:14.601Z,983.63
2022-12-15T08:45:16.351Z,983.59
2022-12-15T08:46:18.230Z,983.58
2022-12-15T08:47:19.809Z,983.7
2022-12-15T08:48:21.620Z,983.65
2022-12-15T08:49:23.283Z,983.77
2022-12-15T08:50:25.100Z,983.75
2022-12-15T08:51:26.789Z,983.67
2022-12-15T08:52:28.488Z,983.66
2022-12-15T08:53:31.876Z,983.66
2022-12-15T08:54:31.937Z,983.67
2022-12-15T08:55:33.713Z,983.72
2022-12-15T08:56:35.456Z,983.67
2022-12-15T08:57:37.146Z,983.68
2022-12-15T08:58:38.892Z,983.66
2022-12-15T08:59:40.608Z,983.81
2022-12-15T09:00:42.363Z,983.79
2022-12-15T09:01:44.301Z,983.82
2022-12-15T09:02:45.916Z,983.88
2022-12-15T09:03:48.787Z,984
2022-12-15T09:04:49.348Z,984
2022-12-15T09:05:51.017Z,983.98
2022-12-15T09:06:52.752Z,984.11
2022-12-15T09:07:54.483Z,984.17
2022-12-15T09:08:56.221Z,984.11
2022-12-15T09:09:57.992Z,984.13
2022-12-15T09:10:59.698Z,984.14
2022-12-15T09:12:01.422Z,984.18
2022-12-15T09:13:03.177Z,984.16
2022-12-15T09:14:04.867Z,984.21
2022-12-15T09:15:06.612Z,984.17
2022-12-15T09:16:10.423Z,984.19
2022-12-15T09:17:10.145Z,984.21
2022-12-15T09:18:11.847Z,984.14
2022-12-15T09:19:13.552Z,984.17
2022-12-15T09:20:17.842Z,984.2
2022-12-15T09:21:17.017Z,984.26
2022-12-15T09:22:18.746Z,984.22
2022-12-15T09:23:20.517Z,984.24
2022-12-15T09:24:30.569Z,984.32
2022-12-15T09:25:23.935Z,984.33
2022-12-15T09:26:25.737Z,984.35
2022-12-15T09:27:27.434Z,984.33
2022-12-15T09:28:29.172Z,984.29
2022-12-15T09:29:30.880Z,984.32
2022-12-15T09:30:32.751Z,984.28
2022-12-15T09:31:34.397Z,984.31
2022-12-15T09:32:36.075Z,984.28
2022-12-15T09:33:37.802Z,984.3
2022-12-15T09:34:39.541Z,984.29
2022-12-15T09:35:41.295Z,984.42
2022-12-15T09:36:43.042Z,984.35
2022-12-15T09:37:48.491Z,984.31
2022-12-15T09:38:46.526Z,984.41
2022-12-15T09:39:48.222Z,984.36
2022-12-15T09:40:50.103Z,984.4
2022-12-15T09:41:51.725Z,984.37
2022-12-15T09:43:04.864Z,984.33
2022-12-15T09:43:56.252Z,984.27
2022-12-15T09:44:56.882Z,984.32
2022-12-15T09:45:58.661Z,984.34
2022-12-15T09:47:00.349Z,984.32
2022-12-15T09:48:02.106Z,984.37
2022-12-15T09:49:03.810Z,984.35
2022-12-15T09:50:05.583Z,984.45
2022-12-15T09:51:07.280Z,984.39
2022-12-15T09:52:11.338Z,984.47
2022-12-15T09:53:36.750Z,984.51
2022-12-15T09:54:12.507Z,984.46
2022-12-15T09:55:20.317Z,984.5
2022-12-15T09:56:21.112Z,984.38
2022-12-15T09:57:22.827Z,984.36
2022-12-15T09:58:24.606Z,984.48
2022-12-15T09:59:26.343Z,984.48
2022-12-15T10:00:28.066Z,984.39
2022-12-15T10:01:29.821Z,984.34
2022-12-15T10:02:31.609Z,984.44
2022-12-15T10:03:33.915Z,984.41
2022-12-15T10:04:35.037Z,984.49
2022-12-15T10:06:07.289Z,984.47
2022-12-15T10:06:38.435Z,984.54
2022-12-15T10:07:40.186Z,984.53
2022-12-15T10:08:41.900Z,984.58
2022-12-15T10:09:47.069Z,984.52
2022-12-15T10:10:50.416Z,984.52
2022-12-15T10:11:52.165Z,984.53
2022-12-15T10:13:01.733Z,984.51
2022-12-15T10:13:55.600Z,984.48
2022-12-15T10:14:57.364Z,984.46
2022-12-15T10:16:00.567Z,984.47
2022-12-15T10:17:00.830Z,984.51
2022-12-15T10:18:03.857Z,984.47
2022-12-15T10:19:04.214Z,984.43
2022-12-15T10:20:07.455Z,984.42
2022-12-15T10:21:07.745Z,984.37
2022-12-15T10:22:09.411Z,984.37
2022-12-15T10:23:11.213Z,984.3
2022-12-15T10:24:12.932Z,984.38
2022-12-15T10:25:14.571Z,984.32
2022-12-15T10:26:16.332Z,984.35
2022-12-15T10:27:18.043Z,984.36
2022-12-15T10:28:19.723Z,984.33
2022-12-15T10:29:21.538Z,984.27
2022-12-15T10:30:23.500Z,984.29
2022-12-15T10:31:25.077Z,984.25
2022-12-15T10:32:26.695Z,984.24
2022-12-15T10:33:28.974Z,984.21
2022-12-15T10:34:30.210Z,984.19
2022-12-15T10:35:31.855Z,984.23
2022-12-15T10:36:34.694Z,984.23
2022-12-15T10:37:36.454Z,984.18
2022-12-15T10:38:37.015Z,984.17
2022-12-15T10:39:38.709Z,984.18
2022-12-15T10:40:40.455Z,984.17
2022-12-15T10:41:42.220Z,984.17
2022-12-15T10:42:43.974Z,984.2
2022-12-15T10:43:46.905Z,984.26
2022-12-15T10:44:50.326Z,984.22
2022-12-15T10:45:49.145Z,984.2
2022-12-15T10:46:50.942Z,984.12
2022-12-15T10:47:52.551Z,984.14
2022-12-15T10:48:54.314Z,984.09
2022-12-15T10:49:55.969Z,984.05
2022-12-15T10:50:58.978Z,984.14
2022-12-15T10:52:00.694Z,984.16
2022-12-15T10:53:01.143Z,984.17
2022-12-15T10:54:02.884Z,984.17
2022-12-15T10:55:05.796Z,984.18
2022-12-15T10:56:06.312Z,984.19
2022-12-15T10:57:10.609Z,984.15
2022-12-15T10:58:14.913Z,984.18
2022-12-15T10:59:16.637Z,984.17
2022-12-15T11:00:19.740Z,984.19
2022-12-15T11:01:20.290Z,984.13
2022-12-15T11:02:24.513Z,984.16
2022-12-15T11:03:23.791Z,984.04
2022-12-15T11:04:23.714Z,984.2
2022-12-15T11:05:27.018Z,984.13
2022-12-15T11:06:30.148Z,984.16
2022-12-15T11:07:31.681Z,984.18
2022-12-15T11:08:32.190Z,984.23
2022-12-15T11:09:33.891Z,984.17
2022-12-15T11:10:35.648Z,984.16
2022-12-15T11:11:38.867Z,984.15
2022-12-15T11:12:39.081Z,984.12
2022-12-15T11:13:41.378Z,984.15
2022-12-15T11:14:42.542Z,984.14
2022-12-15T11:15:44.405Z,984.07
2022-12-15T11:16:45.970Z,984.03
2022-12-15T11:17:47.679Z,984.01
2022-12-15T11:18:49.492Z,983.98
2022-12-15T11:19:55.109Z,983.99
2022-12-15T11:20:55.701Z,983.99
2022-12-15T11:21:55.761Z,984.05
2022-12-15T11:23:00.513Z,983.99
2022-12-15T11:24:03.282Z,983.91
2022-12-15T11:25:05.019Z,983.88
2022-12-15T11:26:07.373Z,983.82
2022-12-15T11:27:08.419Z,983.81
2022-12-15T11:28:10.125Z,983.75
2022-12-15T11:29:11.908Z,983.76
2022-12-15T11:30:13.654Z,983.76
2022-12-15T11:31:15.331Z,983.69
2022-12-15T11:32:17.030Z,983.71
2022-12-15T11:33:18.897Z,983.63
2022-12-15T11:34:20.489Z,983.62
2022-12-15T11:35:23.035Z,983.6
2022-12-15T11:36:23.928Z,983.66
2022-12-15T11:37:29.325Z,983.65
2022-12-15T11:38:27.367Z,983.59
2022-12-15T11:39:29.122Z,983.67
2022-12-15T11:40:30.802Z,983.63
2022-12-15T11:41:34.943Z,983.64
2022-12-15T11:42:39.430Z,983.57
2022-12-15T11:43:42.634Z,983.52
2022-12-15T11:45:04.568Z,983.55
2022-12-15T11:46:05.187Z,983.56
2022-12-15T11:47:06.942Z,983.51
2022-12-15T11:48:13.236Z,983.55
2022-12-15T11:49:17.030Z,983.53
2022-12-15T11:50:17.338Z,983.54
2022-12-15T11:51:19.016Z,983.56
2022-12-15T11:52:20.754Z,983.53
2022-12-15T11:53:22.486Z,983.48
2022-12-15T11:54:24.214Z,983.45
2022-12-15T11:55:31.064Z,983.48
2022-12-15T11:56:27.653Z,983.47
2022-12-15T11:57:29.377Z,983.46
2022-12-15T11:58:31.465Z,983.51
2022-12-15T11:59:32.841Z,983.55
2022-12-15T12:00:34.528Z,983.54
2022-12-15T12:01:36.374Z,983.59
2022-12-15T12:02:39.536Z,983.62
2022-12-15T12:03:39.760Z,983.57
2022-12-15T12:04:41.543Z,983.57
2022-12-15T12:05:43.237Z,983.52
2022-12-15T12:06:44.989Z,983.48
2022-12-15T12:07:46.725Z,983.45
2022-12-15T12:08:51.048Z,983.42
2022-12-15T12:09:50.180Z,983.4
2022-12-15T12:10:51.944Z,983.43
2022-12-15T12:11:53.640Z,983.3
2022-12-15T12:12:55.372Z,983.28
2022-12-15T12:13:57.099Z,983.24
2022-12-15T12:14:58.860Z,983.22
2022-12-15T12:16:00.589Z,983.29
2022-12-15T12:17:02.330Z,983.23
2022-12-15T12:18:04.075Z,983.22
2022-12-15T12:19:05.945Z,983.22
2022-12-15T12:20:11.395Z,983.2
2022-12-15T12:21:09.191Z,983.17
2022-12-15T12:22:10.943Z,983.09
2022-12-15T12:23:12.657Z,983.06
2022-12-15T12:24:14.398Z,983.06
2022-12-15T12:25:16.136Z,983.01
2022-12-15T12:26:17.852Z,983.06
2022-12-15T12:27:19.591Z,983.06
2022-12-15T12:28:21.314Z,983.05
2022-12-15T12:29:23.150Z,982.99
2022-12-15T12:30:24.825Z,982.96
2022-12-15T12:31:26.577Z,982.87
2022-12-15T12:32:28.265Z,982.81
2022-12-15T12:33:30.043Z,982.76
2022-12-15T12:34:31.755Z,982.75
2022-12-15T12:35:33.718Z,982.79
2022-12-15T12:36:35.261Z,982.73
2022-12-15T12:37:37.010Z,982.69
2022-12-15T12:38:38.846Z,982.74
2022-12-15T12:39:40.480Z,982.72
2022-12-15T12:40:42.195Z,982.7
2022-12-15T12:41:43.875Z,982.71
2022-12-15T12:42:46.979Z,982.69
2022-12-15T12:43:50.443Z,982.71
2022-12-15T12:44:49.079Z,982.69
2022-12-15T12:45:50.838Z,982.67
2022-12-15T12:46:53.743Z,982.68
2022-12-15T12:47:54.322Z,982.67
2022-12-15T12:48:55.180Z,982.74
2022-12-15T12:49:57.715Z,982.64
2022-12-15T12:50:59.468Z,982.63
2022-12-15T12:52:01.214Z,982.73
2022-12-15T12:53:02.976Z,982.75
2022-12-15T12:54:04.675Z,982.72
2022-12-15T12:55:12.708Z,982.65
2022-12-15T12:56:08.152Z,982.62
2022-12-15T12:57:09.885Z,982.67